Mars — XPC8385 — position and weather

sailwx.info

Track history (hours):
 
Tides and Currents Weather Stations Pressure Air Temp Water Temp Dewpoint Dewpoint Depression Visibility Wind Speed Wind Dir Waves Ship Positions

Mars

Last reported at 2018-Jan-20 18:01 UTC. Time now 2018-Jan-21 20:52 UTC.
Position N 55°17' E 014°48'.

Length 14 m; draft 1.7 m.

Type: Pilot. MMSI: 219001058.

Date/timePositionNaut miles runAvg speedWind from/ knotsBaromVisibWave heightAir tempDewpointWater temp
2018-Jan-20 18:01N 55°17' E 014°48'216.2
2018-Jan-20 17:54N 55°18' E 014°51'2 0.2
2018-Jan-20 08:15N 55°17' E 014°48'0 0.0
2018-Jan-20 02:39N 55°17' E 014°48'0 0.0
2018-Jan-20 01:21N 55°17' E 014°48'0 0.0
2018-Jan-19 22:27N 55°17' E 014°48'0 0.0
2018-Jan-19 21:57N 55°17' E 014°48'0 0.0
2018-Jan-19 20:30N 55°17' E 014°48'0 0.0
2018-Jan-19 20:00N 55°17' E 014°48'0 0.0
2018-Jan-19 18:36N 55°17' E 014°48'0 0.0
2018-Jan-19 18:07N 55°17' E 014°48'318.9
2018-Jan-19 17:56N 55°20' E 014°48'3 0.6
2018-Jan-19 12:21N 55°17' E 014°48'0 0.0
2018-Jan-19 07:51N 55°17' E 014°48'0 0.0
2018-Jan-19 06:09N 55°17' E 014°48'0 0.0
2018-Jan-19 05:57N 55°17' E 014°48'0 0.0
2018-Jan-19 04:51N 55°17' E 014°48'2 4.8
2018-Jan-19 04:28N 55°18' E 014°47'2 2.2
2018-Jan-19 03:38N 55°17' E 014°48'0 0.0
2018-Jan-19 03:26N 55°17' E 014°48'0 0.0
2018-Jan-19 02:56N 55°17' E 014°48'0 0.0
2018-Jan-19 01:32N 55°17' E 014°48'0 0.0
2018-Jan-19 01:20N 55°17' E 014°48'0 0.0
2018-Jan-19 00:50N 55°17' E 014°48'0 0.0
2018-Jan-19 00:26N 55°17' E 014°48'0 0.0
2018-Jan-18 23:38N 55°17' E 014°48'0 0.0
2018-Jan-18 23:26N 55°17' E 014°48'0 0.0
2018-Jan-18 22:56N 55°17' E 014°48'0 0.0
2018-Jan-18 20:32N 55°17' E 014°48'0 0.0
2018-Jan-18 20:26N 55°17' E 014°48'0 0.0
2018-Jan-18 19:56N 55°17' E 014°48'0 0.0
2018-Jan-18 15:43N 55°17' E 014°48'0 0.0
2018-Jan-18 15:07N 55°17' E 014°48'0 0.0
2018-Jan-18 13:13N 55°17' E 014°48'0 0.0
2018-Jan-18 12:49N 55°17' E 014°48'0 0.0
2018-Jan-18 12:25N 55°17' E 014°48'0 0.0
2018-Jan-18 11:58N 55°17' E 014°48'0 0.0
2018-Jan-18 11:01N 55°17' E 014°48'0 0.0
2018-Jan-18 09:37N 55°17' E 014°48'0 0.0
2018-Jan-18 09:25N 55°17' E 014°48'0 0.0
2018-Jan-18 08:49N 55°17' E 014°48'0 0.0
2018-Jan-18 08:19N 55°17' E 014°48'0 0.0
2018-Jan-18 07:19N 55°17' E 014°48'0 0.0
2018-Jan-18 06:37N 55°17' E 014°48'0 0.0
2018-Jan-18 05:13N 55°17' E 014°48'0 0.0
2018-Jan-18 04:55N 55°17' E 014°48'0 0.0
2018-Jan-18 02:55N 55°17' E 014°48'0 0.0
2018-Jan-18 01:55N 55°17' E 014°48'0 0.0
2018-Jan-18 00:19N 55°17' E 014°48'0 0.0
2018-Jan-17 23:49N 55°17' E 014°48'  
2018-Jan-10 19:23N 55°17' E 014°45'1 3.1
2018-Jan-10 18:58N 55°17' E 014°43'  
Track history (hours):
 
Tides and Currents Weather Stations Pressure Air Temp Water Temp Dewpoint Dewpoint Depression Visibility Wind Speed Wind Dir Waves Ship Positions

Mars

Last reported at 2018-Jan-20 18:01 UTC. Time now 2018-Jan-21 20:52 UTC.
Position N 55°17' E 014°48'.

Length 14 m; draft 1.7 m.

Type: Pilot. MMSI: 219001058.

Date/timePositionNaut miles runAvg speedWind from/ knotsBaromVisibWave heightAir tempDewpointWater temp
2018-Jan-20 18:01N 55°17' E 014°48'216.2
2018-Jan-20 17:54N 55°18' E 014°51'2 0.2
2018-Jan-20 08:15N 55°17' E 014°48'0 0.0
2018-Jan-20 02:39N 55°17' E 014°48'0 0.0
2018-Jan-20 01:21N 55°17' E 014°48'0 0.0
2018-Jan-19 22:27N 55°17' E 014°48'0 0.0
2018-Jan-19 21:57N 55°17' E 014°48'0 0.0
2018-Jan-19 20:30N 55°17' E 014°48'0 0.0
2018-Jan-19 20:00N 55°17' E 014°48'0 0.0
2018-Jan-19 18:36N 55°17' E 014°48'0 0.0
2018-Jan-19 18:07N 55°17' E 014°48'318.9
2018-Jan-19 17:56N 55°20' E 014°48'3 0.6
2018-Jan-19 12:21N 55°17' E 014°48'0 0.0
2018-Jan-19 07:51N 55°17' E 014°48'0 0.0
2018-Jan-19 06:09N 55°17' E 014°48'0 0.0
2018-Jan-19 05:57N 55°17' E 014°48'0 0.0
2018-Jan-19 04:51N 55°17' E 014°48'2 4.8
2018-Jan-19 04:28N 55°18' E 014°47'2 2.2
2018-Jan-19 03:38N 55°17' E 014°48'0 0.0
2018-Jan-19 03:26N 55°17' E 014°48'0 0.0
2018-Jan-19 02:56N 55°17' E 014°48'0 0.0
2018-Jan-19 01:32N 55°17' E 014°48'0 0.0
2018-Jan-19 01:20N 55°17' E 014°48'0 0.0
2018-Jan-19 00:50N 55°17' E 014°48'0 0.0
2018-Jan-19 00:26N 55°17' E 014°48'0 0.0
2018-Jan-18 23:38N 55°17' E 014°48'0 0.0
2018-Jan-18 23:26N 55°17' E 014°48'0 0.0
2018-Jan-18 22:56N 55°17' E 014°48'0 0.0
2018-Jan-18 20:32N 55°17' E 014°48'0 0.0
2018-Jan-18 20:26N 55°17' E 014°48'0 0.0
2018-Jan-18 19:56N 55°17' E 014°48'0 0.0
2018-Jan-18 15:43N 55°17' E 014°48'0 0.0
2018-Jan-18 15:07N 55°17' E 014°48'0 0.0
2018-Jan-18 13:13N 55°17' E 014°48'0 0.0
2018-Jan-18 12:49N 55°17' E 014°48'0 0.0
2018-Jan-18 12:25N 55°17' E 014°48'0 0.0
2018-Jan-18 11:58N 55°17' E 014°48'0 0.0
2018-Jan-18 11:01N 55°17' E 014°48'0 0.0
2018-Jan-18 09:37N 55°17' E 014°48'0 0.0
2018-Jan-18 09:25N 55°17' E 014°48'0 0.0
2018-Jan-18 08:49N 55°17' E 014°48'0 0.0
2018-Jan-18 08:19N 55°17' E 014°48'0 0.0
2018-Jan-18 07:19N 55°17' E 014°48'0 0.0
2018-Jan-18 06:37N 55°17' E 014°48'0 0.0
2018-Jan-18 05:13N 55°17' E 014°48'0 0.0
2018-Jan-18 04:55N 55°17' E 014°48'0 0.0
2018-Jan-18 02:55N 55°17' E 014°48'0 0.0
2018-Jan-18 01:55N 55°17' E 014°48'0 0.0
2018-Jan-18 00:19N 55°17' E 014°48'0 0.0
2018-Jan-17 23:49N 55°17' E 014°48'  
2018-Jan-10 19:23N 55°17' E 014°45'1 3.1
2018-Jan-10 18:58N 55°17' E 014°43'  

Dump ship's entire track history